메인 페이지
METAR-TAF:

METAR-TAF

공항 :

양양국제공항

양양군, 대한민국

위도: 38-03-41N, 경도: 128-40-09E, 고도: 73m

현재 날씨관측

예보는 18분 전, 15:00시(UTC)에 발표되었습니다.
북북서8kt
온도 26°C
습도 100%
기압 1007 hPa
시정: 7000m

METAR: RKNY 151500Z AUTO 33008KT 7000 ///006/// ///020/// 26/26 Q1007

시각: 00:18 (15:18 UTC)

예보

예보는 4 시간 18분 전, 11:00시(UTC)에 발표되었습니다.
예보 대상 시간: 15일 12시부터 16일 18시까지 (UTC)
6kt
시정: 2400m
고도 1000ft 상공 구름 보통
고도 3000ft 상공 구름 많음
고도 8000ft 상공 흐림
박무
전환 중
15일 16시부터 15일 17시까지 (UTC)
북북동8kt
약한비
일시적
15일 18시부터 15일 22시까지 (UTC)
시정: 1200m
전환 중
16일 00시부터 16일 01시까지 (UTC)
북동15kt, 순간 최대 풍속 25kt
시정: 6000m
전환 중
16일 03시부터 16일 04시까지 (UTC)
전환 중
16일 11시부터 16일 12시까지 (UTC)
10kt
고도 3000ft 상공 구름 보통
고도 12000ft 상공 구름 많음

TAF: RKNY 151100Z 1512/1618 35006KT 2400 BR SCT010 BKN030 OVC080 TN23/1520Z TX25/1606Z BECMG 1516/1517 03008KT -RA TEMPO 1518/1522 1200 BECMG 1600/1601 04015G25KT 6000 BECMG 1603/1604 NSW BECMG 1611/1612 10010KT SCT030 BKN120

4,000개 이상의 공항 관측 자료 및 예보 (METAR 및 TAF 보고).

지도상에서 검색 가능한 기상관측소가 노란 점과 빨간 점으로 표시되어 있습니다.

기상관측소 명을 보려면 표시 위로 마우스를 이동하세요.

날씨 관측과 예보를 보려면 클릭하세요.

지도 변경 : 확대하려면 엑스 표시가 있는 녹색 버튼, 축소하려면 빼기 표시가 있는 녹색 버튼, 다음 페이지의 지도를 보려면 녹색 화살표를 클릭하세요.


METAR-TAF: